sensor_id;sensor_type;location;lat;lon;timestamp;temperature;humidity
25568;DHT22;13455;51.480;7.594;2022-12-18T08:34:59;-1.70;99.90
25568;DHT22;13455;51.480;7.594;2022-12-18T08:37:25;-1.80;99.90
25568;DHT22;13455;51.480;7.594;2022-12-18T08:39:50;-1.70;99.90
25568;DHT22;13455;51.480;7.594;2022-12-18T08:42:16;-1.70;99.90
25568;DHT22;13455;51.480;7.594;2022-12-18T08:45:00;-1.70;99.90
25568;DHT22;13455;51.480;7.594;2022-12-18T08:47:26;-1.60;99.90
25568;DHT22;13455;51.480;7.594;2022-12-18T09:04:31;-0.90;99.90
25568;DHT22;13455;51.480;7.594;2022-12-18T09:06:57;-0.90;99.90
25568;DHT22;13455;51.480;7.594;2022-12-18T09:09:23;0.20;99.90
25568;DHT22;13455;51.480;7.594;2022-12-18T09:11:48;-0.90;99.90
25568;DHT22;13455;51.480;7.594;2022-12-18T09:46:07;-0.20;99.90
25568;DHT22;13455;51.480;7.594;2022-12-18T09:51:17;0.00;99.90
25568;DHT22;13455;51.480;7.594;2022-12-18T09:56:19;0.30;99.90
25568;DHT22;13455;51.480;7.594;2022-12-18T09:58:59;0.40;99.90
25568;DHT22;13455;51.480;7.594;2022-12-18T10:01:27;0.30;99.90
25568;DHT22;13455;51.480;7.594;2022-12-18T10:03:53;0.40;99.90
25568;DHT22;13455;51.480;7.594;2022-12-18T10:06:38;0.40;99.90
25568;DHT22;13455;51.480;7.594;2022-12-18T10:14:46;0.70;99.90
25568;DHT22;13455;51.480;7.594;2022-12-18T10:20:01;0.80;99.90
25568;DHT22;13455;51.480;7.594;2022-12-18T10:22:37;2.20;99.90
25568;DHT22;13455;51.480;7.594;2022-12-18T10:25:19;1.00;99.90
25568;DHT22;13455;51.480;7.594;2022-12-18T10:27:47;1.10;99.90
25568;DHT22;13455;51.480;7.594;2022-12-18T10:30:15;1.10;99.90
25568;DHT22;13455;51.480;7.594;2022-12-18T10:32:41;1.20;99.90
25568;DHT22;13455;51.480;7.594;2022-12-18T10:35:15;1.20;99.90
25568;DHT22;13455;51.480;7.594;2022-12-18T10:38:06;1.00;99.90
25568;DHT22;13455;51.480;7.594;2022-12-18T10:40:32;2.90;99.90
25568;DHT22;13455;51.480;7.594;2022-12-18T10:45:41;1.50;99.90
25568;DHT22;13455;51.480;7.594;2022-12-18T10:48:21;1.60;99.90
25568;DHT22;13455;51.480;7.594;2022-12-18T10:50:49;1.60;99.90
25568;DHT22;13455;51.480;7.594;2022-12-18T11:03:46;2.00;99.90
25568;DHT22;13455;51.480;7.594;2022-12-18T11:09:04;2.10;99.90
25568;DHT22;13455;51.480;7.594;2022-12-18T11:26:52;2.60;99.90
25568;DHT22;13455;51.480;7.594;2022-12-18T11:29:24;2.60;99.90
25568;DHT22;13455;51.480;7.594;2022-12-18T11:37:03;2.70;99.90
25568;DHT22;13455;51.480;7.594;2022-12-18T11:52:41;3.10;99.90
25568;DHT22;13455;51.480;7.594;2022-12-18T12:39:11;3.60;96.30
25568;DHT22;13455;51.480;7.594;2022-12-18T12:44:33;3.60;97.10
25568;DHT22;13455;51.480;7.594;2022-12-18T13:02:38;3.70;96.20
25568;DHT22;13455;51.480;7.594;2022-12-18T13:05:40;3.70;96.20
25568;DHT22;13455;51.480;7.594;2022-12-18T13:08:11;3.80;95.90
25568;DHT22;13455;51.480;7.594;2022-12-18T13:10:41;3.70;94.70
25568;DHT22;13455;51.480;7.594;2022-12-18T13:13:11;3.80;95.60
25568;DHT22;13455;51.480;7.594;2022-12-18T13:25:52;3.80;94.50
25568;DHT22;13455;51.480;7.594;2022-12-18T13:29:07;3.80;94.80
25568;DHT22;13455;51.480;7.594;2022-12-18T13:31:07;3.80;94.20
25568;DHT22;13455;51.480;7.594;2022-12-18T13:33:37;3.70;93.90
25568;DHT22;13455;51.480;7.594;2022-12-18T13:36:14;3.70;93.70
25568;DHT22;13455;51.480;7.594;2022-12-18T13:38:41;3.70;93.90
25568;DHT22;13455;51.480;7.594;2022-12-18T13:43:39;3.70;94.00
25568;DHT22;13455;51.480;7.594;2022-12-18T13:46:20;3.70;92.70
25568;DHT22;13455;51.480;7.594;2022-12-18T13:51:51;3.80;91.90
25568;DHT22;13455;51.480;7.594;2022-12-18T13:57:04;3.80;93.50
25568;DHT22;13455;51.480;7.594;2022-12-18T16:57:02;2.30;98.00
25568;DHT22;13455;51.480;7.594;2022-12-18T16:59:29;2.30;98.80
25568;DHT22;13455;51.480;7.594;2022-12-18T17:01:55;2.40;99.90
25568;DHT22;13455;51.480;7.594;2022-12-18T17:41:07;2.20;99.90
25568;DHT22;13455;51.480;7.594;2022-12-18T17:43:33;2.20;99.90
25568;DHT22;13455;51.480;7.594;2022-12-18T17:46:04;2.10;99.90
25568;DHT22;13455;51.480;7.594;2022-12-18T18:00:46;2.30;99.90
25568;DHT22;13455;51.480;7.594;2022-12-18T18:03:12;2.20;99.90
25568;DHT22;13455;51.480;7.594;2022-12-18T18:47:30;2.30;99.90
25568;DHT22;13455;51.480;7.594;2022-12-18T18:49:56;2.20;99.90
25568;DHT22;13455;51.480;7.594;2022-12-18T18:52:22;2.20;99.90
25568;DHT22;13455;51.480;7.594;2022-12-18T18:54:47;2.20;99.90
25568;DHT22;13455;51.480;7.594;2022-12-18T18:57:14;2.10;99.90
25568;DHT22;13455;51.480;7.594;2022-12-18T18:59:39;2.10;99.90
25568;DHT22;13455;51.480;7.594;2022-12-18T19:02:07;2.10;99.90
25568;DHT22;13455;51.480;7.594;2022-12-18T19:04:33;2.10;99.90
25568;DHT22;13455;51.480;7.594;2022-12-18T19:06:59;2.00;99.90
25568;DHT22;13455;51.480;7.594;2022-12-18T19:09:25;2.00;99.90
25568;DHT22;13455;51.480;7.594;2022-12-18T21:02:00;2.00;99.90
25568;DHT22;13455;51.480;7.594;2022-12-18T21:04:25;2.00;99.90
25568;DHT22;13455;51.480;7.594;2022-12-18T21:06:51;2.00;99.90
25568;DHT22;13455;51.480;7.594;2022-12-18T21:09:18;2.00;99.90
25568;DHT22;13455;51.480;7.594;2022-12-18T21:11:43;2.10;99.90
25568;DHT22;13455;51.480;7.594;2022-12-18T21:14:28;2.00;99.90
25568;DHT22;13455;51.480;7.594;2022-12-18T21:16:56;2.00;99.90
25568;DHT22;13455;51.480;7.594;2022-12-18T21:19:24;2.00;99.90
25568;DHT22;13455;51.480;7.594;2022-12-18T21:21:51;2.00;99.90
25568;DHT22;13455;51.480;7.594;2022-12-18T21:24:17;2.00;99.90
25568;DHT22;13455;51.480;7.594;2022-12-18T21:26:44;2.00;99.90
25568;DHT22;13455;51.480;7.594;2022-12-18T21:29:19;2.00;99.90
25568;DHT22;13455;51.480;7.594;2022-12-18T21:31:45;2.00;99.90
25568;DHT22;13455;51.480;7.594;2022-12-18T21:34:18;2.10;99.90
25568;DHT22;13455;51.480;7.594;2022-12-18T21:36:45;2.00;99.90
25568;DHT22;13455;51.480;7.594;2022-12-18T21:39:11;2.00;99.90
25568;DHT22;13455;51.480;7.594;2022-12-18T21:41:37;2.10;99.90
25568;DHT22;13455;51.480;7.594;2022-12-18T21:44:21;2.10;99.90
25568;DHT22;13455;51.480;7.594;2022-12-18T21:46:48;2.10;99.90
25568;DHT22;13455;51.480;7.594;2022-12-18T21:49:15;2.10;99.90
25568;DHT22;13455;51.480;7.594;2022-12-18T21:51:43;2.10;99.90
25568;DHT22;13455;51.480;7.594;2022-12-18T22:36:27;2.70;99.90
25568;DHT22;13455;51.480;7.594;2022-12-18T22:38:58;2.90;99.90
25568;DHT22;13455;51.480;7.594;2022-12-18T22:41:24;2.30;99.90
25568;DHT22;13455;51.480;7.594;2022-12-18T22:43:49;2.30;99.90
25568;DHT22;13455;51.480;7.594;2022-12-18T22:51:16;2.30;99.90
25568;DHT22;13455;51.480;7.594;2022-12-18T22:53:43;2.30;99.90
25568;DHT22;13455;51.480;7.594;2022-12-18T22:56:09;2.30;99.90
25568;DHT22;13455;51.480;7.594;2022-12-18T22:58:35;2.30;99.90
25568;DHT22;13455;51.480;7.594;2022-12-18T23:01:01;2.40;99.90
25568;DHT22;13455;51.480;7.594;2022-12-18T23:06:01;2.40;99.90
25568;DHT22;13455;51.480;7.594;2022-12-18T23:10:53;2.30;99.90
25568;DHT22;13455;51.480;7.594;2022-12-18T23:15:45;2.40;99.90
25568;DHT22;13455;51.480;7.594;2022-12-18T23:18:11;2.40;99.90
25568;DHT22;13455;51.480;7.594;2022-12-18T23:20:37;2.40;99.90
25568;DHT22;13455;51.480;7.594;2022-12-18T23:23:02;2.40;99.90
25568;DHT22;13455;51.480;7.594;2022-12-18T23:25:28;2.30;99.90
25568;DHT22;13455;51.480;7.594;2022-12-18T23:27:54;2.40;99.90
25568;DHT22;13455;51.480;7.594;2022-12-18T23:30:19;2.40;99.90
25568;DHT22;13455;51.480;7.594;2022-12-18T23:32:45;2.40;99.90
25568;DHT22;13455;51.480;7.594;2022-12-18T23:40:03;2.40;99.90
25568;DHT22;13455;51.480;7.594;2022-12-18T23:44:54;2.30;99.90
25568;DHT22;13455;51.480;7.594;2022-12-18T23:49:46;2.40;99.90
25568;DHT22;13455;51.480;7.594;2022-12-18T23:52:11;2.30;99.90
25568;DHT22;13455;51.480;7.594;2022-12-18T23:57:04;2.40;99.90
25568;DHT22;13455;51.480;7.594;2022-12-18T23:59:29;2.30;99.90
